Time;durP1;ratioP1;P1;durP2;ratioP2;P2;SDS_P1;SDS_P2;PMS_P1;PMS_P2;Temp;Humidity;BMP_temperature;BMP_pressure;BME280_temperature;BME280_humidity;BME280_pressure;Samples;Min_cycle;Max_cycle;Signal;HPM_P1;HPM_P2
2021/08/04 00:00:59;;;;;;;6.45;3.70;;;;;;;15.03;72.15;98836.00;5053253;28;20049;-60
2021/08/04 00:03:25;;;;;;;7.43;3.78;;;;;;;15.02;71.83;98829.88;5053191;28;20045;-59
2021/08/04 00:05:51;;;;;;;5.60;3.75;;;;;;;14.99;71.80;98844.56;5052207;28;20071;-60
2021/08/04 00:08:17;;;;;;;7.10;3.90;;;;;;;14.95;72.00;98843.56;5053397;28;20091;-59
2021/08/04 00:10:42;;;;;;;6.72;3.47;;;;;;;14.92;71.95;98849.44;5053302;28;20041;-60
2021/08/04 00:13:08;;;;;;;10.15;4.30;;;;;;;14.89;72.33;98844.66;5053311;28;20537;-59
2021/08/04 00:15:34;;;;;;;7.70;4.10;;;;;;;14.85;72.34;98850.84;5053253;28;20044;-59
2021/08/04 00:18:00;;;;;;;5.05;3.50;;;;;;;14.81;72.76;98845.25;5052617;28;20049;-60
2021/08/04 00:20:25;;;;;;;9.20;3.95;;;;;;;14.77;72.89;98852.25;5052865;28;20086;-60
2021/08/04 00:22:51;;;;;;;4.40;3.35;;;;;;;14.73;72.81;98851.97;5018298;28;20045;-58
2021/08/04 00:25:17;;;;;;;5.85;3.90;;;;;;;14.70;73.17;98844.53;5052746;28;20461;-60
2021/08/04 00:27:44;;;;;;;7.80;3.70;;;;;;;14.69;73.03;98848.28;5052866;28;20075;-59
2021/08/04 00:30:11;;;;;;;6.00;3.47;;;;;;;14.68;72.89;98853.91;5052744;28;20037;-59
2021/08/04 00:32:36;;;;;;;6.13;3.65;;;;;;;14.67;73.04;98845.09;5051557;28;20136;-59
2021/08/04 00:35:03;;;;;;;4.18;3.40;;;;;;;14.66;72.84;98853.38;5051341;28;20450;-59
2021/08/04 00:37:29;;;;;;;6.32;3.40;;;;;;;14.68;73.12;98854.69;5051476;28;20476;-58
2021/08/04 00:39:54;;;;;;;5.00;3.45;;;;;;;14.67;73.17;98858.41;5052728;28;20134;-60
2021/08/04 00:42:21;;;;;;;4.57;3.40;;;;;;;14.66;73.44;98854.16;5052646;28;20047;-58
2021/08/04 00:44:47;;;;;;;6.10;3.72;;;;;;;14.65;73.38;98857.13;5052619;28;20079;-58
2021/08/04 00:47:14;;;;;;;5.15;3.15;;;;;;;14.63;73.40;98845.94;5051233;28;20044;-59
2021/08/04 00:49:47;;;;;;;4.18;3.45;;;;;;;14.62;73.53;98855.81;5051202;28;20098;-59
2021/08/04 00:52:13;;;;;;;7.22;3.60;;;;;;;14.58;73.61;98852.09;5051261;28;20041;-59
2021/08/04 00:54:39;;;;;;;6.63;4.05;;;;;;;14.56;73.67;98854.25;5051046;28;20128;-58
2021/08/04 00:57:05;;;;;;;6.82;3.42;;;;;;;14.52;73.84;98847.84;5050791;28;20068;-58
2021/08/04 00:59:31;;;;;;;4.47;2.90;;;;;;;14.50;73.90;98858.78;5052158;28;20045;-60
2021/08/04 01:02:09;;;;;;;5.85;3.90;;;;;;;14.50;74.05;98853.44;5050883;28;20496;-59
2021/08/04 01:04:43;;;;;;;4.78;3.35;;;;;;;14.46;74.19;98859.59;5034418;28;20049;-59
2021/08/04 01:07:12;;;;;;;6.85;3.47;;;;;;;14.44;74.12;98856.41;5034018;28;20110;-59
2021/08/04 01:09:45;;;;;;;9.10;3.75;;;;;;;14.41;74.24;98870.28;5051009;28;20048;-59
2021/08/04 01:12:17;;;;;;;7.75;3.78;;;;;;;14.40;74.30;98860.69;5051802;28;20072;-59
2021/08/04 01:14:44;;;;;;;5.32;3.13;;;;;;;14.36;74.53;98865.00;5034137;28;20045;-58
2021/08/04 01:17:11;;;;;;;5.35;3.35;;;;;;;14.38;74.49;98868.16;5033698;28;20132;-59
2021/08/04 01:20:01;;;;;;;9.98;3.40;;;;;;;14.37;74.52;98871.91;5050627;28;20080;-59
2021/08/04 01:22:47;;;;;;;6.53;3.10;;;;;;;14.36;74.37;98867.66;5033998;28;20041;-58
2021/08/04 01:25:18;;;;;;;6.55;3.42;;;;;;;14.32;74.35;98859.38;5051854;28;20053;-57
2021/08/04 01:28:12;;;;;;;6.10;3.53;;;;;;;14.38;74.46;98873.50;5033897;28;20114;-58
2021/08/04 01:30:39;;;;;;;8.45;3.55;;;;;;;14.39;74.59;98875.09;5051721;28;20106;-59
2021/08/04 01:33:05;;;;;;;5.10;3.30;;;;;;;14.41;74.39;98880.94;5051775;28;20505;-59
2021/08/04 01:35:31;;;;;;;5.38;3.88;;;;;;;14.41;74.49;98872.94;5050306;28;20127;-60
2021/08/04 01:37:58;;;;;;;5.00;3.80;;;;;;;14.41;74.49;98872.94;5033659;28;20053;-57
2021/08/04 01:40:25;;;;;;;6.93;3.22;;;;;;;14.42;74.42;98874.56;5050269;28;20041;-59
2021/08/04 01:42:51;;;;;;;7.20;3.38;;;;;;;14.46;74.45;98886.25;5033820;28;20045;-59
2021/08/04 01:45:17;;;;;;;5.55;3.58;;;;;;;14.52;73.97;98887.84;5033608;28;20123;-58
2021/08/04 01:47:43;;;;;;;9.32;3.30;;;;;;;14.66;73.81;98886.19;5050125;28;20103;-59
2021/08/04 01:50:10;;;;;;;6.55;3.35;;;;;;;14.82;73.19;98888.75;5051655;28;20049;-60
2021/08/04 01:52:41;;;;;;;6.68;3.20;;;;;;;14.98;72.47;98885.69;5051622;28;20045;-59
2021/08/04 01:55:09;;;;;;;4.43;3.20;;;;;;;15.19;71.79;98885.53;5051304;28;20045;-61
2021/08/04 01:57:38;;;;;;;4.78;2.60;;;;;;;15.42;70.58;98878.66;5033667;28;20044;-60
2021/08/04 02:00:04;;;;;;;3.60;2.50;;;;;;;15.66;69.64;98882.16;5049984;28;20131;-59
2021/08/04 02:02:40;;;;;;;5.80;2.90;;;;;;;15.85;69.00;98881.47;5051293;28;20045;-58
2021/08/04 02:05:07;;;;;;;5.18;2.83;;;;;;;16.19;67.95;98885.91;5049834;28;20502;-58
2021/08/04 02:07:33;;;;;;;7.95;3.17;;;;;;;16.46;67.00;98893.31;5051333;28;20049;-59
2021/08/04 02:10:06;;;;;;;5.30;2.85;;;;;;;16.70;66.18;98894.03;5051138;28;20148;-58
2021/08/04 02:12:45;;;;;;;4.38;3.33;;;;;;;16.85;65.52;98895.72;5049763;28;20037;-59
2021/08/04 02:15:13;;;;;;;5.93;3.20;;;;;;;17.22;64.33;98900.25;5049882;28;20135;-58
2021/08/04 02:17:40;;;;;;;3.28;2.83;;;;;;;17.58;63.07;98912.25;5033262;28;20071;-58
2021/08/04 02:20:34;;;;;;;7.93;3.47;;;;;;;17.93;61.87;98910.81;5049870;28;20053;-59
2021/08/04 02:23:29;;;;;;;5.70;2.83;;;;;;;18.22;60.69;98909.75;5049535;28;20045;-59
2021/08/04 02:26:00;;;;;;;6.82;3.00;;;;;;;18.51;59.97;98910.19;5032715;28;20068;-60
2021/08/04 02:28:35;;;;;;;7.88;2.60;;;;;;;18.80;58.91;98912.53;5051743;28;20041;-59
2021/08/04 02:31:02;;;;;;;5.57;3.10;;;;;;;19.07;57.82;98910.84;5036623;28;20045;-59
2021/08/04 02:33:29;;;;;;;5.82;2.85;;;;;;;19.36;56.97;98917.69;5037088;28;20053;-59
2021/08/04 02:35:55;;;;;;;5.38;3.08;;;;;;;19.60;55.79;98915.47;5020375;28;20045;-59
2021/08/04 02:38:21;;;;;;;6.43;2.80;;;;;;;19.82;55.20;98913.84;5053592;28;20053;-59
2021/08/04 02:40:49;;;;;;;5.68;2.92;;;;;;;20.08;54.39;98925.50;5037129;28;20044;-60
2021/08/04 02:43:15;;;;;;;6.05;2.38;;;;;;;20.29;53.51;98927.63;5054742;28;20048;-58
2021/08/04 02:45:42;;;;;;;4.13;3.00;;;;;;;20.55;53.04;98922.34;5036746;28;20043;-60
2021/08/04 02:48:08;;;;;;;6.60;2.85;;;;;;;20.75;52.22;98935.19;5053422;28;20131;-59
2021/08/04 02:50:38;;;;;;;6.32;2.58;;;;;;;20.99;51.35;98928.53;5053298;28;20144;-58
2021/08/04 02:53:04;;;;;;;5.93;2.83;;;;;;;21.08;51.09;98935.50;5036728;28;20049;-60
2021/08/04 02:55:31;;;;;;;7.65;2.95;;;;;;;21.21;50.55;98935.69;5036668;28;20049;-59
2021/08/04 02:57:57;;;;;;;4.63;2.63;;;;;;;21.37;50.08;98938.69;5054625;28;20049;-58
2021/08/04 03:00:22;;;;;;;6.82;3.10;;;;;;;21.45;50.00;98930.59;5052934;28;20094;-61
2021/08/04 03:02:48;;;;;;;5.80;3.30;;;;;;;21.52;49.47;98941.66;5054559;28;20086;-59
2021/08/04 03:05:16;;;;;;;4.45;3.08;;;;;;;21.66;49.17;98943.41;5036580;28;20037;-59
2021/08/04 03:07:42;;;;;;;5.13;3.15;;;;;;;21.72;49.12;98937.50;5054101;28;20052;-58
2021/08/04 03:10:08;;;;;;;7.57;3.08;;;;;;;21.93;48.58;98953.78;5054079;28;20514;-59
2021/08/04 03:12:34;;;;;;;7.65;4.00;;;;;;;21.92;48.74;98948.72;5052567;28;20417;-58
2021/08/04 03:15:00;;;;;;;7.72;3.25;;;;;;;21.51;49.50;98934.72;5053997;28;20040;-61
2021/08/04 03:17:25;;;;;;;8.48;3.90;;;;;;;21.71;49.09;98954.03;5054117;28;20131;-59
2021/08/04 03:19:51;;;;;;;6.75;3.65;;;;;;;21.93;48.57;98958.38;5052576;28;20544;-59
2021/08/04 03:22:17;;;;;;;9.20;4.10;;;;;;;22.13;47.99;98967.69;5054260;28;20047;-59
2021/08/04 03:24:42;;;;;;;6.30;3.75;;;;;;;22.02;48.39;98961.84;5053726;28;20115;-58
2021/08/04 03:27:08;;;;;;;7.18;4.72;;;;;;;22.12;47.77;98969.59;5053645;28;20072;-58
2021/08/04 03:29:34;;;;;;;8.45;4.75;;;;;;;22.13;48.20;98968.47;5052568;28;20044;-59
2021/08/04 03:31:59;;;;;;;7.68;3.60;;;;;;;21.95;48.21;98973.16;5052432;28;20059;-58
2021/08/04 03:34:25;;;;;;;7.22;3.70;;;;;;;21.87;48.44;98981.25;5054305;28;20140;-58
2021/08/04 03:36:51;;;;;;;9.57;4.28;;;;;;;21.43;49.75;98975.16;5053635;28;20081;-59
2021/08/04 03:39:16;;;;;;;11.93;5.82;;;;;;;20.70;51.36;98983.81;5054050;28;20087;-59
2021/08/04 03:41:42;;;;;;;14.50;6.07;;;;;;;20.28;52.91;98983.34;5053716;28;20041;-59
2021/08/04 03:44:08;;;;;;;9.73;5.95;;;;;;;20.57;52.19;98987.44;5053150;28;20063;-59
2021/08/04 03:46:33;;;;;;;11.70;6.40;;;;;;;20.96;51.06;98989.25;5053272;28;20051;-58
2021/08/04 03:48:59;;;;;;;10.30;5.40;;;;;;;21.21;50.58;98992.28;5035557;28;20056;-58
2021/08/04 03:51:26;;;;;;;8.23;3.90;;;;;;;21.43;50.30;98996.72;5052386;28;20037;-58
2021/08/04 03:53:52;;;;;;;10.23;4.70;;;;;;;21.67;49.19;99002.41;5053733;28;20509;-59
2021/08/04 03:56:17;;;;;;;9.38;4.30;;;;;;;21.73;49.23;99001.13;5053287;28;20059;-60
2021/08/04 03:58:43;;;;;;;7.40;4.88;;;;;;;21.95;48.83;99007.44;5053640;28;20517;-57
2021/08/04 04:01:09;;;;;;;7.85;4.82;;;;;;;21.98;48.38;99006.78;5052165;28;20461;-60
2021/08/04 04:03:34;;;;;;;8.38;5.35;;;;;;;22.10;48.57;99003.41;5035476;28;20474;-59
2021/08/04 04:06:00;;;;;;;6.65;4.35;;;;;;;22.14;48.47;99009.75;5053211;28;20509;-59
2021/08/04 04:08:26;;;;;;;7.93;5.18;;;;;;;22.22;48.94;99007.03;5053442;28;20364;-60
2021/08/04 04:10:52;;;;;;;5.82;4.57;;;;;;;22.51;47.76;99021.69;5051668;28;20048;-60
2021/08/04 04:13:17;;;;;;;7.03;4.60;;;;;;;22.70;47.59;99034.78;5051713;28;20079;-59
2021/08/04 04:15:43;;;;;;;8.80;4.75;;;;;;;22.75;47.40;99036.50;5053223;28;20357;-60
2021/08/04 04:18:09;;;;;;;5.57;3.60;;;;;;;22.62;46.76;99028.31;5052719;28;20044;-59
2021/08/04 04:20:35;;;;;;;5.30;3.83;;;;;;;22.26;48.45;99030.69;5053110;28;20073;-59
2021/08/04 04:23:01;;;;;;;4.65;2.75;;;;;;;22.57;47.81;99031.19;5052858;28;20127;-59
2021/08/04 04:25:27;;;;;;;6.10;3.10;;;;;;;22.77;47.58;99026.97;5053053;28;20178;-59
2021/08/04 04:27:53;;;;;;;5.65;2.88;;;;;;;23.03;46.58;99026.84;5052920;28;20491;-59
2021/08/04 04:30:19;;;;;;;5.38;2.72;;;;;;;23.22;46.23;99039.88;5052683;28;20045;-60
2021/08/04 04:32:44;;;;;;;3.45;2.55;;;;;;;23.24;45.94;99037.66;5051241;28;20542;-59
2021/08/04 04:35:10;;;;;;;3.40;2.10;;;;;;;23.31;45.74;99040.59;5052411;28;20045;-58
2021/08/04 04:37:36;;;;;;;5.55;2.28;;;;;;;23.15;45.97;99041.53;5052721;28;20121;-58
2021/08/04 04:40:04;;;;;;;5.55;2.20;;;;;;;23.23;45.21;99041.47;5052420;28;20044;-59
2021/08/04 04:42:30;;;;;;;3.40;2.25;;;;;;;23.24;45.23;99044.97;5052488;28;20041;-60
2021/08/04 04:44:56;;;;;;;4.93;2.03;;;;;;;23.34;45.19;99042.66;5052158;28;20090;-61
2021/08/04 04:47:21;;;;;;;3.15;2.30;;;;;;;23.63;45.18;99059.91;5051835;28;20445;-59
2021/08/04 04:49:47;;;;;;;4.55;2.45;;;;;;;23.81;44.49;99052.47;5052088;28;20067;-60
2021/08/04 04:52:13;;;;;;;3.58;1.90;;;;;;;23.88;44.42;99051.91;5051615;28;20041;-59
2021/08/04 04:54:38;;;;;;;3.55;1.90;;;;;;;23.70;44.79;99049.38;5052080;28;20422;-59
2021/08/04 04:57:04;;;;;;;7.35;2.00;;;;;;;23.86;44.31;99054.97;5052095;28;20041;-60
2021/08/04 04:59:30;;;;;;;4.65;2.25;;;;;;;23.83;44.11;99049.44;5050365;28;20043;-61
2021/08/04 05:01:55;;;;;;;5.28;2.30;;;;;;;23.69;44.10;99053.19;5052200;28;20037;-60
2021/08/04 05:04:21;;;;;;;4.95;1.75;;;;;;;23.46;44.57;99046.53;5052084;28;20110;-59
2021/08/04 05:06:47;;;;;;;5.40;2.38;;;;;;;23.31;44.84;99040.59;5033623;28;20044;-58
2021/08/04 05:09:12;;;;;;;4.00;2.03;;;;;;;23.01;45.26;99047.19;5050235;28;20503;-59
2021/08/04 05:11:38;;;;;;;3.50;2.10;;;;;;;22.70;46.31;99050.19;5050879;28;20165;-59
2021/08/04 05:14:04;;;;;;;9.20;2.53;;;;;;;22.76;46.92;99044.28;5052087;28;20064;-59
2021/08/04 05:16:30;;;;;;;7.82;2.30;;;;;;;22.81;46.29;99044.09;5051858;28;20525;-59
2021/08/04 05:18:55;;;;;;;3.00;1.80;;;;;;;22.58;46.01;99046.28;5050183;28;20065;-59
2021/08/04 05:21:22;;;;;;;2.90;2.00;;;;;;;22.39;45.75;99046.69;5051670;28;20064;-60
2021/08/04 05:23:47;;;;;;;4.70;1.90;;;;;;;22.21;45.58;99045.19;5051837;28;20045;-60
2021/08/04 05:26:13;;;;;;;2.22;1.60;;;;;;;22.00;45.99;99053.13;5051359;28;20444;-59
2021/08/04 05:28:39;;;;;;;3.67;1.60;;;;;;;21.80;46.72;99043.81;5051784;28;20052;-59
2021/08/04 05:31:05;;;;;;;3.25;1.60;;;;;;;21.61;47.27;99051.44;5051570;28;20037;-59
2021/08/04 05:33:30;;;;;;;3.88;1.75;;;;;;;21.63;47.64;99046.53;5051720;28;20040;-59
2021/08/04 05:35:57;;;;;;;2.50;1.60;;;;;;;21.61;47.84;99051.44;5051631;28;20036;-61
2021/08/04 05:38:23;;;;;;;7.78;1.85;;;;;;;21.65;47.09;99050.50;5051527;28;20430;-59
2021/08/04 05:40:48;;;;;;;2.65;2.00;;;;;;;21.65;46.74;99052.38;5051481;28;20037;-61
2021/08/04 05:43:14;;;;;;;4.03;1.38;;;;;;;21.64;46.50;99061.59;5049851;28;20443;-60
2021/08/04 05:45:40;;;;;;;4.20;1.70;;;;;;;21.64;46.99;99067.00;5050810;28;20128;-58
2021/08/04 05:48:06;;;;;;;3.25;1.60;;;;;;;21.59;45.95;99070.66;5051325;28;20128;-58
2021/08/04 05:50:32;;;;;;;2.28;1.58;;;;;;;21.57;46.92;99075.56;5051091;28;20040;-61
2021/08/04 05:52:59;;;;;;;3.25;1.60;;;;;;;21.50;46.61;99070.66;5000501;28;20500;-57
2021/08/04 05:55:24;;;;;;;3.70;1.63;;;;;;;21.51;46.93;99064.16;5051070;28;20099;-59
2021/08/04 05:57:50;;;;;;;3.47;1.70;;;;;;;21.48;47.31;99069.38;5049695;28;20461;-59
2021/08/04 06:00:17;;;;;;;2.95;1.30;;;;;;;21.35;47.19;99065.69;5033277;28;20093;-60
2021/08/04 06:02:43;;;;;;;5.13;1.98;;;;;;;21.38;46.85;99065.06;5050353;28;20057;-60
2021/08/04 06:05:10;;;;;;;5.82;1.88;;;;;;;21.43;46.84;99067.63;5033268;28;20044;-62
2021/08/04 06:07:35;;;;;;;3.42;1.55;;;;;;;21.49;46.74;99068.25;5050963;28;20045;-61
2021/08/04 06:10:01;;;;;;;3.63;1.58;;;;;;;21.52;46.68;99073.81;5050859;28;20507;-65
2021/08/04 06:12:27;;;;;;;3.60;1.80;;;;;;;21.40;47.48;99079.03;5050761;28;20053;-60
2021/08/04 06:14:53;;;;;;;7.78;1.98;;;;;;;21.42;47.50;99073.34;5050647;28;20036;-60
2021/08/04 06:17:18;;;;;;;4.75;1.90;;;;;;;21.37;47.58;99076.97;5050945;28;20490;-60
2021/08/04 06:19:44;;;;;;;2.67;1.67;;;;;;;21.28;47.79;99078.84;5050891;28;20064;-60
2021/08/04 06:22:10;;;;;;;4.28;1.77;;;;;;;21.24;48.00;99072.50;5051110;28;20066;-60
2021/08/04 06:24:36;;;;;;;2.05;1.75;;;;;;;21.30;47.79;99077.44;5033365;28;20045;-60
2021/08/04 06:27:02;;;;;;;4.78;2.00;;;;;;;21.30;47.96;99076.63;5032680;28;20502;-62
2021/08/04 06:29:27;;;;;;;21.40;2.85;;;;;;;21.41;47.99;99075.22;5049645;28;20049;-60
2021/08/04 06:31:53;;;;;;;3.00;1.60;;;;;;;21.54;48.12;99078.91;5032839;28;20041;-60
2021/08/04 06:34:19;;;;;;;3.80;1.83;;;;;;;21.45;47.79;99078.09;5032957;28;20048;-60
2021/08/04 06:36:45;;;;;;;2.28;1.67;;;;;;;21.33;48.17;99081.41;5050599;28;20040;-60
2021/08/04 06:39:10;;;;;;;3.47;1.70;;;;;;;21.41;47.99;99083.31;5050675;28;20045;-59
2021/08/04 06:41:37;;;;;;;2.13;1.90;;;;;;;21.44;48.36;99085.41;5049733;28;20049;-60
2021/08/04 06:44:03;;;;;;;3.97;1.80;;;;;;;21.55;47.92;99081.25;5049374;28;20600;-61
2021/08/04 06:46:33;;;;;;;6.47;2.22;;;;;;;21.61;47.55;99084.59;5050605;28;20307;-59
2021/08/04 06:48:59;;;;;;;;;;;;;;;21.74;47.08;99077.47;5033207;28;20045;-60
2021/08/04 06:51:25;;;;;;;1.73;1.58;;;;;;;21.71;48.33;99078.91;5045691;28;19975;-60
2021/08/04 06:53:51;;;;;;;5.95;1.92;;;;;;;21.74;47.50;99078.25;5047849;28;20048;-59
2021/08/04 06:56:17;;;;;;;2.78;1.77;;;;;;;21.88;47.53;99082.66;5028841;28;20065;-59
2021/08/04 06:58:44;;;;;;;3.85;1.70;;;;;;;21.98;47.20;99080.44;5040600;28;20084;-59
2021/08/04 07:01:11;;;;;;;5.53;1.90;;;;;;;22.03;46.88;99078.69;5027843;28;20309;-59
2021/08/04 07:03:38;;;;;;;5.32;2.25;;;;;;;22.10;47.00;99081.69;5035908;28;20060;-60
2021/08/04 07:06:06;;;;;;;1.67;1.50;;;;;;;22.09;46.53;99083.59;5026839;28;20486;-59
2021/08/04 07:08:32;;;;;;;4.88;1.63;;;;;;;22.04;46.80;99074.88;5032991;28;20432;-60
2021/08/04 07:10:57;;;;;;;3.90;1.73;;;;;;;21.91;46.79;99077.44;5037141;28;20052;-59
2021/08/04 07:13:23;;;;;;;2.97;1.70;;;;;;;21.76;47.22;99076.00;5045431;28;20161;-59
2021/08/04 07:15:50;;;;;;;4.15;1.80;;;;;;;21.69;47.76;99089.19;5048038;28;20103;-60
2021/08/04 07:18:16;;;;;;;8.25;1.88;;;;;;;21.82;47.85;99086.66;5051396;28;20136;-59
2021/08/04 07:20:42;;;;;;;3.88;2.10;;;;;;;21.89;47.51;99087.75;5049561;28;20489;-59
2021/08/04 07:23:08;;;;;;;4.13;2.17;;;;;;;21.84;48.17;99079.03;5051750;28;20044;-59
2021/08/04 07:25:34;;;;;;;5.45;2.13;;;;;;;21.85;47.73;99077.91;5036853;28;20045;-60
2021/08/04 07:28:01;;;;;;;6.03;2.45;;;;;;;22.08;47.05;99076.59;5039235;28;20044;-59
2021/08/04 07:30:27;;;;;;;4.53;2.13;;;;;;;22.36;46.38;99085.16;5049835;28;20578;-60
2021/08/04 07:32:53;;;;;;;4.03;1.58;;;;;;;22.48;45.96;99089.09;5051897;28;20124;-59
2021/08/04 07:35:19;;;;;;;4.43;2.15;;;;;;;22.57;46.24;99090.63;5044356;28;20040;-60
2021/08/04 07:37:45;;;;;;;4.85;2.03;;;;;;;22.73;45.67;99085.47;5049983;28;20048;-59
2021/08/04 07:40:12;;;;;;;4.38;1.90;;;;;;;22.77;45.19;99091.81;5049081;28;20048;-58
2021/08/04 07:42:38;;;;;;;3.17;1.63;;;;;;;22.77;44.53;99083.72;5030159;28;20549;-60
2021/08/04 07:45:05;;;;;;;3.22;1.90;;;;;;;22.92;44.75;99092.38;5030634;28;20049;-61
2021/08/04 07:47:31;;;;;;;5.32;2.30;;;;;;;23.10;44.39;99096.59;5031604;28;20148;-60
2021/08/04 07:49:56;;;;;;;1.92;1.67;;;;;;;23.24;44.46;99093.66;5029577;28;20586;-60
2021/08/04 07:52:22;;;;;;;3.70;2.03;;;;;;;23.26;44.14;99081.34;5029028;28;20128;-58
2021/08/04 07:54:47;;;;;;;3.55;2.00;;;;;;;23.47;44.38;99081.38;5032813;28;20041;-60
2021/08/04 07:57:13;;;;;;;5.57;1.88;;;;;;;23.66;43.27;99083.59;5048888;28;20502;-60
2021/08/04 07:59:39;;;;;;;3.42;1.83;;;;;;;23.66;42.40;99080.13;5030678;28;20446;-62
2021/08/04 08:02:05;;;;;;;3.85;1.63;;;;;;;23.48;41.24;99082.97;5029464;28;20037;-60
2021/08/04 08:04:31;;;;;;;2.58;1.80;;;;;;;23.52;41.85;99081.16;5027418;28;20045;-61
2021/08/04 08:06:58;;;;;;;5.28;1.90;;;;;;;23.75;42.09;99087.06;5027156;28;20140;-59
2021/08/04 08:09:24;;;;;;;4.95;2.17;;;;;;;23.67;42.42;99077.06;5030018;28;20045;-61
2021/08/04 08:11:52;;;;;;;2.17;1.40;;;;;;;23.76;41.73;99077.00;5047381;28;20073;-59
2021/08/04 08:14:18;;;;;;;2.08;1.65;;;;;;;23.88;40.84;99073.56;5049114;28;20073;-60
2021/08/04 08:16:44;;;;;;;4.15;1.67;;;;;;;24.01;40.40;99070.56;5048078;28;20572;-61
2021/08/04 08:19:09;;;;;;;3.60;1.60;;;;;;;24.07;38.65;99065.72;5029479;28;20068;-60
2021/08/04 08:21:36;;;;;;;2.95;2.05;;;;;;;24.16;39.18;99071.84;5047871;28;20257;-60
2021/08/04 08:24:02;;;;;;;6.80;1.98;;;;;;;24.34;39.03;99077.06;5046564;28;20673;-61
2021/08/04 08:26:33;;;;;;;2.08;1.48;;;;;;;24.21;39.16;99082.47;5044335;28;20052;-62
2021/08/04 08:28:58;;;;;;;2.13;1.70;;;;;;;24.07;39.28;99073.06;5046695;28;20052;-60
2021/08/04 08:31:24;;;;;;;2.47;1.50;;;;;;;24.06;38.84;99072.28;5049118;28;20040;-60
2021/08/04 08:33:50;;;;;;;2.33;1.58;;;;;;;24.30;39.03;99081.59;5046737;28;20059;-61
2021/08/04 08:36:15;;;;;;;12.13;1.85;;;;;;;24.67;37.73;99075.09;5047959;28;20132;-63
2021/08/04 08:38:41;;;;;;;2.58;1.67;;;;;;;24.86;37.07;99071.03;5049262;28;20063;-60
2021/08/04 08:41:07;;;;;;;1.67;1.58;;;;;;;24.87;37.56;99069.91;5029322;28;20432;-60
2021/08/04 08:43:35;;;;;;;3.42;1.80;;;;;;;24.97;37.69;99076.75;5048342;28;20053;-60
2021/08/04 08:46:04;;;;;;;4.10;1.70;;;;;;;25.06;38.37;99072.00;5049341;28;20045;-61
2021/08/04 08:48:30;;;;;;;1.80;1.60;;;;;;;24.90;38.18;99088.97;5049032;28;20139;-60
2021/08/04 08:50:56;;;;;;;4.47;1.50;;;;;;;24.67;38.34;99069.66;5046041;28;20140;-63
2021/08/04 08:53:22;;;;;;;1.98;1.70;;;;;;;24.59;38.67;99072.47;5045676;28;20045;-60
2021/08/04 08:55:48;;;;;;;2.22;1.70;;;;;;;24.44;38.71;99071.22;5046605;28;20060;-64
2021/08/04 08:58:15;;;;;;;2.30;1.90;;;;;;;24.47;37.99;99076.78;5047798;28;20129;-60
2021/08/04 09:00:41;;;;;;;1.75;1.63;;;;;;;24.61;37.80;99072.94;5028476;28;20072;-61
2021/08/04 09:03:07;;;;;;;6.55;1.65;;;;;;;24.61;37.65;99079.16;5029627;28;20529;-60
2021/08/04 09:05:53;;;;;;;2.72;1.70;;;;;;;24.65;37.00;99066.53;5028199;28;20146;-62
2021/08/04 09:08:25;;;;;;;4.47;2.63;;;;;;;24.61;38.24;99065.59;5029539;28;20041;-60
2021/08/04 09:10:51;;;;;;;4.93;1.73;;;;;;;24.56;38.34;99078.56;5026377;28;20048;-60
2021/08/04 09:13:19;;;;;;;3.15;1.60;;;;;;;24.51;38.13;99071.47;5027371;28;20041;-59
2021/08/04 09:15:45;;;;;;;4.22;1.75;;;;;;;24.45;38.51;99070.13;5027182;28;20053;-60
2021/08/04 09:18:16;;;;;;;4.07;1.90;;;;;;;24.44;38.81;99074.75;5027254;28;20048;-60
2021/08/04 09:20:46;;;;;;;2.90;1.90;;;;;;;24.43;38.16;99075.88;5026091;28;20292;-60
2021/08/04 09:23:16;;;;;;;5.63;2.00;;;;;;;24.30;38.18;99078.88;5024803;28;20556;-59
2021/08/04 09:26:04;;;;;;;5.10;1.88;;;;;;;24.17;37.73;99081.53;5026539;28;20045;-60
2021/08/04 09:28:31;;;;;;;1.73;1.63;;;;;;;24.20;37.23;99078.16;5041667;28;20091;-62
2021/08/04 09:31:01;;;;;;;2.72;2.20;;;;;;;24.15;37.20;99077.59;5047281;28;20037;-59
2021/08/04 09:33:36;;;;;;;4.40;2.20;;;;;;;23.96;38.04;99078.09;5046753;28;20044;-60
2021/08/04 09:36:02;;;;;;;4.03;2.28;;;;;;;23.92;37.98;99060.97;5046539;28;20127;-61
2021/08/04 09:38:29;;;;;;;3.17;2.20;;;;;;;23.99;39.07;99072.03;5046970;28;20041;-60
2021/08/04 09:41:16;;;;;;;6.18;1.80;;;;;;;24.14;38.63;99078.72;5047442;28;20045;-60
2021/08/04 09:43:48;;;;;;;2.13;1.63;;;;;;;24.03;38.78;99076.44;5049431;28;20041;-60
2021/08/04 09:46:24;;;;;;;4.15;1.77;;;;;;;24.01;39.17;99077.91;5031784;28;20036;-60
2021/08/04 09:48:50;;;;;;;8.73;1.83;;;;;;;23.94;39.04;99073.03;5046734;28;20056;-62
2021/08/04 09:51:17;;;;;;;5.13;1.80;;;;;;;23.95;39.39;99079.25;5046199;28;20099;-59
2021/08/04 09:53:49;;;;;;;5.93;1.88;;;;;;;23.96;38.51;99075.41;5047798;28;20120;-60
2021/08/04 09:56:17;;;;;;;2.30;1.70;;;;;;;23.96;38.58;99083.53;5047316;28;20033;-61
2021/08/04 09:58:46;;;;;;;2.15;1.95;;;;;;;24.13;38.69;99077.94;5047631;28;20041;-61
2021/08/04 10:01:14;;;;;;;6.30;1.58;;;;;;;24.29;38.13;99086.19;5048171;28;20087;-62
2021/08/04 10:04:04;;;;;;;2.25;1.70;;;;;;;24.38;37.98;99083.38;5045487;28;20135;-61
2021/08/04 10:06:30;;;;;;;4.88;1.83;;;;;;;24.43;38.03;99083.19;5031395;28;20047;-61
2021/08/04 10:08:57;;;;;;;2.95;1.75;;;;;;;24.42;38.40;99085.13;5046583;28;20403;-62
2021/08/04 10:11:24;;;;;;;2.33;1.90;;;;;;;24.50;39.82;99085.34;5047373;28;20041;-61
2021/08/04 10:13:50;;;;;;;3.08;1.73;;;;;;;24.56;38.89;99079.41;5047925;28;20048;-62
2021/08/04 10:16:16;;;;;;;2.25;1.60;;;;;;;24.62;39.18;99082.66;5048423;28;20045;-62
2021/08/04 10:18:42;;;;;;;3.42;1.83;;;;;;;24.62;40.07;99082.66;5048965;28;20057;-60
2021/08/04 10:21:12;;;;;;;2.65;1.95;;;;;;;24.53;39.37;99081.97;5049385;28;20569;-61
2021/08/04 10:23:40;;;;;;;3.67;1.98;;;;;;;24.65;40.49;99087.41;5047373;28;20044;-61
2021/08/04 10:26:10;;;;;;;3.88;2.00;;;;;;;24.73;40.24;99091.13;5048872;28;20523;-61
2021/08/04 10:28:36;;;;;;;3.50;1.77;;;;;;;24.74;40.68;99085.38;5048467;28;20099;-62
2021/08/04 10:31:03;;;;;;;2.70;2.10;;;;;;;24.84;40.24;99086.84;5046221;28;20037;-63
2021/08/04 10:33:32;;;;;;;3.40;1.80;;;;;;;24.79;40.77;99087.84;5044331;28;20187;-61
2021/08/04 10:36:00;;;;;;;3.85;2.42;;;;;;;24.66;41.24;99080.84;5045083;28;20063;-62
2021/08/04 10:38:27;;;;;;;5.25;2.75;;;;;;;24.28;42.34;99067.59;5027697;28;20041;-62
2021/08/04 10:41:13;;;;;;;4.65;2.25;;;;;;;24.06;41.11;99079.59;5029124;28;20513;-61
2021/08/04 10:43:54;;;;;;;3.53;2.00;;;;;;;23.90;40.67;99088.34;5046880;28;20041;-59
2021/08/04 10:46:29;;;;;;;8.02;2.30;;;;;;;23.77;40.80;99084.03;5045296;28;20125;-60
2021/08/04 10:48:58;;;;;;;3.60;1.85;;;;;;;23.75;41.67;99094.38;5048884;28;20788;-60
2021/08/04 10:51:25;;;;;;;3.80;2.13;;;;;;;23.80;44.01;99100.38;5050606;28;20049;-60
2021/08/04 10:54:12;;;;;;;5.65;2.28;;;;;;;23.79;45.51;99098.78;5048859;28;20041;-61
2021/08/04 10:56:41;;;;;;;4.95;2.35;;;;;;;23.64;45.63;99101.28;5050198;28;20494;-60
2021/08/04 10:59:10;;;;;;;2.92;2.20;;;;;;;23.33;46.34;99097.88;5050799;28;20064;-61
2021/08/04 11:01:37;;;;;;;7.25;2.30;;;;;;;23.11;47.72;99103.56;5049334;28;20045;-61
2021/08/04 11:04:09;;;;;;;4.05;2.17;;;;;;;23.05;47.56;99111.06;5050549;28;20262;-60
2021/08/04 11:07:07;;;;;;;2.95;1.90;;;;;;;23.11;47.13;99104.34;5048953;28;20494;-60
2021/08/04 11:09:38;;;;;;;5.70;2.45;;;;;;;23.11;47.17;99109.75;5050564;28;20565;-60
2021/08/04 11:12:06;;;;;;;4.43;2.20;;;;;;;23.28;46.57;99106.16;5049808;28;20482;-65
2021/08/04 11:14:51;;;;;;;5.07;2.30;;;;;;;23.52;46.15;99100.09;5052419;28;20045;-62
2021/08/04 11:17:21;;;;;;;4.25;2.53;;;;;;;23.85;46.70;99101.28;5049965;28;20048;-61
2021/08/04 11:19:56;;;;;;;2.83;2.35;;;;;;;23.99;45.91;99107.22;5048154;28;20101;-61
2021/08/04 11:22:23;;;;;;;2.65;2.13;;;;;;;24.09;44.16;99111.41;5041635;28;20037;-61
2021/08/04 11:24:55;;;;;;;3.03;2.20;;;;;;;24.22;44.38;99099.50;5047459;28;20045;-60
2021/08/04 11:27:26;;;;;;;2.40;2.00;;;;;;;24.29;44.37;99099.72;5036065;28;20041;-60
2021/08/04 11:29:53;;;;;;;3.00;2.00;;;;;;;24.29;43.98;99101.66;5028490;28;20034;-61
2021/08/04 11:32:21;;;;;;;3.50;2.00;;;;;;;24.30;43.33;99087.00;5030809;28;20065;-61
2021/08/04 11:34:47;;;;;;;2.90;1.85;;;;;;;24.36;42.87;99091.06;5048888;28;20134;-62
2021/08/04 11:37:13;;;;;;;3.05;2.08;;;;;;;24.37;42.73;99089.94;5051274;28;20072;-61